Ennice, North Carolina
Current Conditions -  °F | °C
As of 3:15 AM on Tuesday 27 Jan 2015 (Local Time) from KHLX Reporting Station
Overcast Overcast  
Wind Chill: 13°   Ceiling: 1700
Heat Index: 22°   Visibility: 10mi
Dew Point: 16°   Wind: 8mph
Humidity: 77%   Direction: 310°NW
Pressure: 29.7"   Gusts: 18mph
Location:  36.55°N, 81°W
Report Text: KHLX 270815Z AUTO 31007G16KT 10SM OVC017 M06/M09 A2970 RMK AO2 T10561090
Loading
Personal Weather Stations






























Interactive Weather Map New forecast layout! Learn more

10-Day Weather Forecast

Advertisements
Track Severe Weather on mobile